sensor_id;sensor_type;location;lat;lon;timestamp;P1;durP1;ratioP1;P2;durP2;ratioP2
10191;SDS011;17580;50.850;4.504;2023-02-01T00:00:55;15.97;;;5.93;;
10191;SDS011;17580;50.850;4.504;2023-02-01T00:03:22;13.73;;;7.00;;
10191;SDS011;17580;50.850;4.504;2023-02-01T00:05:54;14.10;;;6.23;;
10191;SDS011;17580;50.850;4.504;2023-02-01T00:08:23;15.27;;;5.40;;
10191;SDS011;17580;50.850;4.504;2023-02-01T00:10:57;16.90;;;6.30;;
10191;SDS011;17580;50.850;4.504;2023-02-01T00:13:24;11.87;;;6.23;;
10191;SDS011;17580;50.850;4.504;2023-02-01T00:16:01;16.30;;;5.97;;
10191;SDS011;17580;50.850;4.504;2023-02-01T00:18:29;21.10;;;7.50;;
10191;SDS011;17580;50.850;4.504;2023-02-01T00:20:56;15.10;;;6.53;;
10191;SDS011;17580;50.850;4.504;2023-02-01T00:23:23;12.17;;;6.07;;
10191;SDS011;17580;50.850;4.504;2023-02-01T00:25:50;16.57;;;6.90;;
10191;SDS011;17580;50.850;4.504;2023-02-01T00:28:17;21.87;;;7.03;;
10191;SDS011;17580;50.850;4.504;2023-02-01T00:30:44;15.47;;;7.23;;
10191;SDS011;17580;50.850;4.504;2023-02-01T00:33:12;11.90;;;6.87;;
10191;SDS011;17580;50.850;4.504;2023-02-01T00:35:39;10.47;;;6.03;;
10191;SDS011;17580;50.850;4.504;2023-02-01T00:38:06;16.50;;;8.23;;
10191;SDS011;17580;50.850;4.504;2023-02-01T00:40:33;14.40;;;6.77;;
10191;SDS011;17580;50.850;4.504;2023-02-01T00:43:00;16.70;;;7.30;;
10191;SDS011;17580;50.850;4.504;2023-02-01T00:45:27;18.30;;;7.33;;
10191;SDS011;17580;50.850;4.504;2023-02-01T00:47:54;16.87;;;6.07;;
10191;SDS011;17580;50.850;4.504;2023-02-01T00:50:22;12.00;;;5.37;;
10191;SDS011;17580;50.850;4.504;2023-02-01T00:52:49;13.30;;;6.20;;
10191;SDS011;17580;50.850;4.504;2023-02-01T00:55:16;18.10;;;5.97;;
10191;SDS011;17580;50.850;4.504;2023-02-01T00:57:43;13.37;;;5.70;;
10191;SDS011;17580;50.850;4.504;2023-02-01T01:00:11;12.20;;;5.87;;
10191;SDS011;17580;50.850;4.504;2023-02-01T01:02:38;18.30;;;5.80;;
10191;SDS011;17580;50.850;4.504;2023-02-01T01:05:05;14.60;;;6.33;;
10191;SDS011;17580;50.850;4.504;2023-02-01T01:07:34;11.37;;;5.23;;
10191;SDS011;17580;50.850;4.504;2023-02-01T01:10:01;14.67;;;5.80;;
10191;SDS011;17580;50.850;4.504;2023-02-01T01:12:28;11.10;;;5.93;;
10191;SDS011;17580;50.850;4.504;2023-02-01T01:14:55;14.53;;;5.00;;
10191;SDS011;17580;50.850;4.504;2023-02-01T01:17:22;15.63;;;5.00;;
10191;SDS011;17580;50.850;4.504;2023-02-01T01:19:49;9.80;;;4.80;;
10191;SDS011;17580;50.850;4.504;2023-02-01T01:22:16;9.40;;;4.97;;
10191;SDS011;17580;50.850;4.504;2023-02-01T01:24:45;17.77;;;5.33;;
10191;SDS011;17580;50.850;4.504;2023-02-01T01:27:12;9.20;;;4.07;;
10191;SDS011;17580;50.850;4.504;2023-02-01T01:29:39;11.90;;;5.23;;
10191;SDS011;17580;50.850;4.504;2023-02-01T01:32:06;11.50;;;4.70;;
10191;SDS011;17580;50.850;4.504;2023-02-01T01:34:33;12.80;;;4.67;;
10191;SDS011;17580;50.850;4.504;2023-02-01T01:37:00;13.60;;;5.10;;
10191;SDS011;17580;50.850;4.504;2023-02-01T01:39:27;9.47;;;4.37;;
10191;SDS011;17580;50.850;4.504;2023-02-01T01:41:55;13.13;;;4.77;;
10191;SDS011;17580;50.850;4.504;2023-02-01T01:47:26;11.90;;;5.20;;
10191;SDS011;17580;50.850;4.504;2023-02-01T01:49:59;9.83;;;4.13;;
10191;SDS011;17580;50.850;4.504;2023-02-01T01:52:27;14.00;;;4.33;;
10191;SDS011;17580;50.850;4.504;2023-02-01T01:54:55;16.03;;;4.50;;
10191;SDS011;17580;50.850;4.504;2023-02-01T01:57:25;10.17;;;4.17;;
10191;SDS011;17580;50.850;4.504;2023-02-01T01:59:56;16.10;;;4.67;;
10191;SDS011;17580;50.850;4.504;2023-02-01T02:02:28;11.03;;;3.60;;
10191;SDS011;17580;50.850;4.504;2023-02-01T02:04:55;15.47;;;5.10;;
10191;SDS011;17580;50.850;4.504;2023-02-01T02:07:23;9.47;;;3.00;;
10191;SDS011;17580;50.850;4.504;2023-02-01T02:09:54;12.83;;;3.50;;
10191;SDS011;17580;50.850;4.504;2023-02-01T02:12:21;16.50;;;3.33;;
10191;SDS011;17580;50.850;4.504;2023-02-01T02:14:49;12.43;;;3.27;;
10191;SDS011;17580;50.850;4.504;2023-02-01T02:17:21;19.93;;;4.43;;
10191;SDS011;17580;50.850;4.504;2023-02-01T02:26:09;16.83;;;3.60;;
10191;SDS011;17580;50.850;4.504;2023-02-01T02:28:56;11.03;;;4.00;;
10191;SDS011;17580;50.850;4.504;2023-02-01T02:31:54;13.10;;;3.47;;
10191;SDS011;17580;50.850;4.504;2023-02-01T02:34:40;9.37;;;3.27;;
10191;SDS011;17580;50.850;4.504;2023-02-01T02:37:14;12.63;;;3.70;;
10191;SDS011;17580;50.850;4.504;2023-02-01T02:39:52;11.10;;;3.33;;
10191;SDS011;17580;50.850;4.504;2023-02-01T02:42:27;13.93;;;3.70;;
10191;SDS011;17580;50.850;4.504;2023-02-01T02:45:17;14.13;;;4.20;;
10191;SDS011;17580;50.850;4.504;2023-02-01T02:48:08;14.23;;;3.37;;
10191;SDS011;17580;50.850;4.504;2023-02-01T02:50:41;11.93;;;3.77;;
10191;SDS011;17580;50.850;4.504;2023-02-01T02:53:30;11.70;;;3.23;;
10191;SDS011;17580;50.850;4.504;2023-02-01T02:56:17;16.17;;;3.83;;
10191;SDS011;17580;50.850;4.504;2023-02-01T02:59:04;10.27;;;3.07;;
10191;SDS011;17580;50.850;4.504;2023-02-01T03:01:52;8.50;;;2.97;;
10191;SDS011;17580;50.850;4.504;2023-02-01T03:04:37;11.97;;;3.67;;
10191;SDS011;17580;50.850;4.504;2023-02-01T03:07:13;12.93;;;3.60;;
10191;SDS011;17580;50.850;4.504;2023-02-01T03:09:42;12.47;;;3.53;;
10191;SDS011;17580;50.850;4.504;2023-02-01T03:12:12;11.60;;;3.27;;
10191;SDS011;17580;50.850;4.504;2023-02-01T03:15:00;13.43;;;3.13;;
10191;SDS011;17580;50.850;4.504;2023-02-01T03:17:34;16.33;;;4.03;;
10191;SDS011;17580;50.850;4.504;2023-02-01T03:20:05;11.43;;;4.10;;
10191;SDS011;17580;50.850;4.504;2023-02-01T03:22:37;12.67;;;3.67;;
10191;SDS011;17580;50.850;4.504;2023-02-01T03:25:07;11.60;;;3.70;;
10191;SDS011;17580;50.850;4.504;2023-02-01T03:27:39;11.43;;;3.07;;
10191;SDS011;17580;50.850;4.504;2023-02-01T03:30:11;13.40;;;3.03;;
10191;SDS011;17580;50.850;4.504;2023-02-01T03:32:44;7.47;;;3.27;;
10191;SDS011;17580;50.850;4.504;2023-02-01T03:35:28;15.90;;;3.53;;
10191;SDS011;17580;50.850;4.504;2023-02-01T03:38:00;15.43;;;4.07;;
10191;SDS011;17580;50.850;4.504;2023-02-01T03:40:32;10.90;;;3.77;;
10191;SDS011;17580;50.850;4.504;2023-02-01T03:43:03;14.13;;;3.60;;
10191;SDS011;17580;50.850;4.504;2023-02-01T03:45:33;15.10;;;4.60;;
10191;SDS011;17580;50.850;4.504;2023-02-01T03:48:04;10.67;;;2.93;;
10191;SDS011;17580;50.850;4.504;2023-02-01T03:50:32;17.43;;;3.47;;
10191;SDS011;17580;50.850;4.504;2023-02-01T03:53:04;11.97;;;2.90;;
10191;SDS011;17580;50.850;4.504;2023-02-01T03:55:33;11.97;;;3.50;;
10191;SDS011;17580;50.850;4.504;2023-02-01T03:58:03;16.43;;;4.07;;
10191;SDS011;17580;50.850;4.504;2023-02-01T04:00:33;12.93;;;3.40;;
10191;SDS011;17580;50.850;4.504;2023-02-01T04:03:00;10.93;;;2.67;;
10191;SDS011;17580;50.850;4.504;2023-02-01T04:05:28;16.07;;;3.50;;
10191;SDS011;17580;50.850;4.504;2023-02-01T04:07:55;9.57;;;2.83;;
10191;SDS011;17580;50.850;4.504;2023-02-01T04:10:24;9.80;;;3.20;;
10191;SDS011;17580;50.850;4.504;2023-02-01T04:12:51;8.13;;;3.10;;
10191;SDS011;17580;50.850;4.504;2023-02-01T04:15:18;8.70;;;3.00;;
10191;SDS011;17580;50.850;4.504;2023-02-01T04:17:45;11.13;;;3.53;;
10191;SDS011;17580;50.850;4.504;2023-02-01T04:20:12;12.40;;;2.90;;
10191;SDS011;17580;50.850;4.504;2023-02-01T04:22:39;12.93;;;3.47;;
10191;SDS011;17580;50.850;4.504;2023-02-01T04:25:06;16.33;;;3.33;;
10191;SDS011;17580;50.850;4.504;2023-02-01T04:27:35;13.90;;;3.23;;
10191;SDS011;17580;50.850;4.504;2023-02-01T04:30:02;11.63;;;3.37;;
10191;SDS011;17580;50.850;4.504;2023-02-01T04:32:34;12.13;;;3.20;;
10191;SDS011;17580;50.850;4.504;2023-02-01T04:35:01;14.33;;;3.43;;
10191;SDS011;17580;50.850;4.504;2023-02-01T04:37:28;11.97;;;3.00;;
10191;SDS011;17580;50.850;4.504;2023-02-01T04:39:55;14.93;;;3.17;;
10191;SDS011;17580;50.850;4.504;2023-02-01T04:42:22;13.40;;;3.40;;
10191;SDS011;17580;50.850;4.504;2023-02-01T04:44:51;12.63;;;4.37;;
10191;SDS011;17580;50.850;4.504;2023-02-01T04:47:18;17.97;;;3.97;;
10191;SDS011;17580;50.850;4.504;2023-02-01T04:49:45;16.83;;;3.37;;
10191;SDS011;17580;50.850;4.504;2023-02-01T04:52:12;12.97;;;3.27;;
10191;SDS011;17580;50.850;4.504;2023-02-01T04:54:39;12.47;;;2.90;;
10191;SDS011;17580;50.850;4.504;2023-02-01T04:57:06;13.97;;;3.67;;
10191;SDS011;17580;50.850;4.504;2023-02-01T04:59:33;18.43;;;4.03;;
10191;SDS011;17580;50.850;4.504;2023-02-01T05:02:01;14.37;;;4.07;;
10191;SDS011;17580;50.850;4.504;2023-02-01T05:04:28;11.90;;;3.60;;
10191;SDS011;17580;50.850;4.504;2023-02-01T05:06:55;12.63;;;3.17;;
10191;SDS011;17580;50.850;4.504;2023-02-01T05:09:22;10.90;;;2.93;;
10191;SDS011;17580;50.850;4.504;2023-02-01T05:11:49;11.37;;;3.23;;
10191;SDS011;17580;50.850;4.504;2023-02-01T05:14:34;18.77;;;4.20;;
10191;SDS011;17580;50.850;4.504;2023-02-01T05:17:02;13.63;;;3.83;;
10191;SDS011;17580;50.850;4.504;2023-02-01T05:19:29;11.83;;;3.27;;
10191;SDS011;17580;50.850;4.504;2023-02-01T05:21:56;12.97;;;3.50;;
10191;SDS011;17580;50.850;4.504;2023-02-01T05:24:23;12.83;;;4.10;;
10191;SDS011;17580;50.850;4.504;2023-02-01T05:26:52;9.57;;;2.80;;
10191;SDS011;17580;50.850;4.504;2023-02-01T05:29:19;10.90;;;3.37;;
10191;SDS011;17580;50.850;4.504;2023-02-01T05:31:46;12.70;;;3.47;;
10191;SDS011;17580;50.850;4.504;2023-02-01T05:34:15;19.17;;;3.97;;
10191;SDS011;17580;50.850;4.504;2023-02-01T05:36:42;12.40;;;3.50;;
10191;SDS011;17580;50.850;4.504;2023-02-01T05:39:10;15.40;;;3.60;;
10191;SDS011;17580;50.850;4.504;2023-02-01T05:41:37;12.67;;;4.07;;
10191;SDS011;17580;50.850;4.504;2023-02-01T05:44:04;12.63;;;3.43;;
10191;SDS011;17580;50.850;4.504;2023-02-01T05:46:32;12.07;;;3.20;;
10191;SDS011;17580;50.850;4.504;2023-02-01T05:48:59;12.97;;;3.50;;
10191;SDS011;17580;50.850;4.504;2023-02-01T05:51:28;16.30;;;4.00;;
10191;SDS011;17580;50.850;4.504;2023-02-01T05:53:55;10.57;;;3.43;;
10191;SDS011;17580;50.850;4.504;2023-02-01T05:56:22;14.90;;;3.47;;
10191;SDS011;17580;50.850;4.504;2023-02-01T05:58:49;10.17;;;3.50;;
10191;SDS011;17580;50.850;4.504;2023-02-01T06:01:16;13.30;;;3.50;;
10191;SDS011;17580;50.850;4.504;2023-02-01T06:03:43;10.43;;;2.80;;
10191;SDS011;17580;50.850;4.504;2023-02-01T06:06:09;14.37;;;3.83;;
10191;SDS011;17580;50.850;4.504;2023-02-01T06:08:38;12.50;;;3.20;;
10191;SDS011;17580;50.850;4.504;2023-02-01T06:11:06;16.47;;;3.47;;
10191;SDS011;17580;50.850;4.504;2023-02-01T06:13:33;13.53;;;3.47;;
10191;SDS011;17580;50.850;4.504;2023-02-01T06:16:00;16.33;;;3.10;;
10191;SDS011;17580;50.850;4.504;2023-02-01T06:18:28;13.70;;;3.73;;
10191;SDS011;17580;50.850;4.504;2023-02-01T06:20:56;14.33;;;3.67;;
10191;SDS011;17580;50.850;4.504;2023-02-01T06:23:25;13.53;;;3.47;;
10191;SDS011;17580;50.850;4.504;2023-02-01T06:25:57;11.37;;;3.60;;
10191;SDS011;17580;50.850;4.504;2023-02-01T06:28:25;9.03;;;3.23;;
10191;SDS011;17580;50.850;4.504;2023-02-01T06:30:53;18.30;;;3.40;;
10191;SDS011;17580;50.850;4.504;2023-02-01T06:33:20;13.43;;;3.53;;
10191;SDS011;17580;50.850;4.504;2023-02-01T06:35:47;14.60;;;2.80;;
10191;SDS011;17580;50.850;4.504;2023-02-01T06:38:14;20.40;;;4.50;;
10191;SDS011;17580;50.850;4.504;2023-02-01T06:40:43;10.80;;;2.83;;
10191;SDS011;17580;50.850;4.504;2023-02-01T06:43:12;14.77;;;3.97;;
10191;SDS011;17580;50.850;4.504;2023-02-01T06:45:39;20.27;;;3.63;;
10191;SDS011;17580;50.850;4.504;2023-02-01T06:48:06;14.00;;;3.27;;
10191;SDS011;17580;50.850;4.504;2023-02-01T06:50:33;17.57;;;3.60;;
10191;SDS011;17580;50.850;4.504;2023-02-01T06:53:00;14.80;;;3.30;;
10191;SDS011;17580;50.850;4.504;2023-02-01T06:55:27;13.33;;;3.67;;
10191;SDS011;17580;50.850;4.504;2023-02-01T06:57:55;19.13;;;3.93;;
10191;SDS011;17580;50.850;4.504;2023-02-01T07:00:23;9.67;;;2.97;;
10191;SDS011;17580;50.850;4.504;2023-02-01T07:02:51;15.70;;;3.73;;
10191;SDS011;17580;50.850;4.504;2023-02-01T07:05:17;13.60;;;3.33;;
10191;SDS011;17580;50.850;4.504;2023-02-01T07:07:44;15.20;;;3.07;;
10191;SDS011;17580;50.850;4.504;2023-02-01T07:10:11;10.17;;;2.90;;
10191;SDS011;17580;50.850;4.504;2023-02-01T07:12:39;15.57;;;4.13;;
10191;SDS011;17580;50.850;4.504;2023-02-01T07:15:06;14.77;;;3.60;;
10191;SDS011;17580;50.850;4.504;2023-02-01T07:17:35;16.07;;;3.47;;
10191;SDS011;17580;50.850;4.504;2023-02-01T07:20:02;12.03;;;3.20;;
10191;SDS011;17580;50.850;4.504;2023-02-01T07:22:30;10.27;;;4.00;;
10191;SDS011;17580;50.850;4.504;2023-02-01T07:24:57;14.30;;;3.53;;
10191;SDS011;17580;50.850;4.504;2023-02-01T07:27:24;11.97;;;3.17;;
10191;SDS011;17580;50.850;4.504;2023-02-01T07:29:51;14.53;;;4.20;;
10191;SDS011;17580;50.850;4.504;2023-02-01T07:32:18;16.30;;;3.50;;
10191;SDS011;17580;50.850;4.504;2023-02-01T07:34:46;16.97;;;3.87;;
10191;SDS011;17580;50.850;4.504;2023-02-01T07:37:13;10.23;;;3.27;;
10191;SDS011;17580;50.850;4.504;2023-02-01T07:39:40;18.93;;;4.43;;
10191;SDS011;17580;50.850;4.504;2023-02-01T07:42:07;11.20;;;3.90;;
10191;SDS011;17580;50.850;4.504;2023-02-01T07:44:34;15.77;;;3.67;;
10191;SDS011;17580;50.850;4.504;2023-02-01T07:47:01;21.50;;;4.30;;
10191;SDS011;17580;50.850;4.504;2023-02-01T07:49:28;16.90;;;4.30;;
10191;SDS011;17580;50.850;4.504;2023-02-01T07:51:56;15.80;;;3.70;;
10191;SDS011;17580;50.850;4.504;2023-02-01T07:54:23;18.83;;;4.03;;
10191;SDS011;17580;50.850;4.504;2023-02-01T07:56:50;19.63;;;4.17;;
10191;SDS011;17580;50.850;4.504;2023-02-01T07:59:17;9.07;;;3.10;;
10191;SDS011;17580;50.850;4.504;2023-02-01T08:01:44;19.00;;;4.23;;
10191;SDS011;17580;50.850;4.504;2023-02-01T08:04:11;15.53;;;4.40;;
10191;SDS011;17580;50.850;4.504;2023-02-01T08:06:39;18.87;;;4.10;;
10191;SDS011;17580;50.850;4.504;2023-02-01T08:09:08;14.13;;;3.10;;
10191;SDS011;17580;50.850;4.504;2023-02-01T08:11:35;9.73;;;3.80;;
10191;SDS011;17580;50.850;4.504;2023-02-01T08:14:03;22.17;;;4.70;;
10191;SDS011;17580;50.850;4.504;2023-02-01T08:16:31;18.30;;;3.90;;
10191;SDS011;17580;50.850;4.504;2023-02-01T08:19:00;19.70;;;4.43;;
10191;SDS011;17580;50.850;4.504;2023-02-01T08:21:27;14.20;;;3.90;;
10191;SDS011;17580;50.850;4.504;2023-02-01T08:24:01;15.27;;;3.73;;
10191;SDS011;17580;50.850;4.504;2023-02-01T08:26:31;13.33;;;3.27;;
10191;SDS011;17580;50.850;4.504;2023-02-01T08:28:59;15.67;;;3.83;;
10191;SDS011;17580;50.850;4.504;2023-02-01T08:31:29;13.77;;;3.50;;
10191;SDS011;17580;50.850;4.504;2023-02-01T08:33:57;17.23;;;4.13;;
10191;SDS011;17580;50.850;4.504;2023-02-01T08:36:28;12.43;;;3.77;;
10191;SDS011;17580;50.850;4.504;2023-02-01T08:38:56;18.30;;;3.57;;
10191;SDS011;17580;50.850;4.504;2023-02-01T08:41:24;16.10;;;3.93;;
10191;SDS011;17580;50.850;4.504;2023-02-01T08:43:54;17.73;;;4.33;;
10191;SDS011;17580;50.850;4.504;2023-02-01T08:46:21;15.53;;;4.27;;
10191;SDS011;17580;50.850;4.504;2023-02-01T08:48:49;9.47;;;3.33;;
10191;SDS011;17580;50.850;4.504;2023-02-01T08:51:17;16.57;;;3.80;;
10191;SDS011;17580;50.850;4.504;2023-02-01T08:53:46;17.50;;;4.83;;
10191;SDS011;17580;50.850;4.504;2023-02-01T08:56:15;19.50;;;4.20;;
10191;SDS011;17580;50.850;4.504;2023-02-01T08:58:43;15.30;;;3.97;;
10191;SDS011;17580;50.850;4.504;2023-02-01T09:01:13;13.37;;;4.47;;
10191;SDS011;17580;50.850;4.504;2023-02-01T09:03:41;11.70;;;3.77;;
10191;SDS011;17580;50.850;4.504;2023-02-01T09:06:09;24.30;;;4.17;;
10191;SDS011;17580;50.850;4.504;2023-02-01T09:08:38;14.23;;;3.83;;
10191;SDS011;17580;50.850;4.504;2023-02-01T09:11:07;13.40;;;3.53;;
10191;SDS011;17580;50.850;4.504;2023-02-01T09:13:36;14.57;;;3.77;;
10191;SDS011;17580;50.850;4.504;2023-02-01T09:16:03;13.63;;;3.90;;
10191;SDS011;17580;50.850;4.504;2023-02-01T09:21:03;17.10;;;4.93;;
10191;SDS011;17580;50.850;4.504;2023-02-01T09:23:31;17.27;;;4.40;;
10191;SDS011;17580;50.850;4.504;2023-02-01T09:25:58;19.53;;;4.80;;
10191;SDS011;17580;50.850;4.504;2023-02-01T09:28:25;12.63;;;3.73;;
10191;SDS011;17580;50.850;4.504;2023-02-01T09:30:54;17.53;;;4.60;;
10191;SDS011;17580;50.850;4.504;2023-02-01T09:33:22;15.70;;;4.40;;
10191;SDS011;17580;50.850;4.504;2023-02-01T09:35:55;14.37;;;4.57;;
10191;SDS011;17580;50.850;4.504;2023-02-01T09:38:22;9.17;;;3.97;;
10191;SDS011;17580;50.850;4.504;2023-02-01T09:40:50;12.43;;;3.70;;
10191;SDS011;17580;50.850;4.504;2023-02-01T09:43:20;12.80;;;3.87;;
10191;SDS011;17580;50.850;4.504;2023-02-01T09:45:59;10.50;;;3.83;;
10191;SDS011;17580;50.850;4.504;2023-02-01T09:48:33;11.47;;;4.20;;
10191;SDS011;17580;50.850;4.504;2023-02-01T09:51:06;10.27;;;3.97;;
10191;SDS011;17580;50.850;4.504;2023-02-01T09:53:40;15.30;;;3.50;;
10191;SDS011;17580;50.850;4.504;2023-02-01T09:56:12;10.77;;;4.27;;
10191;SDS011;17580;50.850;4.504;2023-02-01T09:58:42;10.27;;;3.73;;
10191;SDS011;17580;50.850;4.504;2023-02-01T10:01:15;8.70;;;3.97;;
10191;SDS011;17580;50.850;4.504;2023-02-01T10:03:46;9.20;;;4.07;;
10191;SDS011;17580;50.850;4.504;2023-02-01T10:06:27;11.57;;;3.87;;
10191;SDS011;17580;50.850;4.504;2023-02-01T10:09:06;13.67;;;4.83;;
10191;SDS011;17580;50.850;4.504;2023-02-01T10:11:42;8.67;;;3.40;;
10191;SDS011;17580;50.850;4.504;2023-02-01T10:14:28;11.13;;;4.27;;
10191;SDS011;17580;50.850;4.504;2023-02-01T10:17:10;8.53;;;3.50;;
10191;SDS011;17580;50.850;4.504;2023-02-01T10:19:48;15.90;;;4.87;;
10191;SDS011;17580;50.850;4.504;2023-02-01T10:22:27;10.00;;;3.67;;
10191;SDS011;17580;50.850;4.504;2023-02-01T10:25:00;13.60;;;4.30;;
10191;SDS011;17580;50.850;4.504;2023-02-01T10:27:34;12.57;;;4.43;;
10191;SDS011;17580;50.850;4.504;2023-02-01T10:30:06;12.03;;;3.77;;
10191;SDS011;17580;50.850;4.504;2023-02-01T10:32:44;23.80;;;3.67;;
10191;SDS011;17580;50.850;4.504;2023-02-01T10:35:13;9.63;;;4.13;;
10191;SDS011;17580;50.850;4.504;2023-02-01T10:37:43;9.77;;;3.57;;
10191;SDS011;17580;50.850;4.504;2023-02-01T10:40:21;7.70;;;3.50;;
10191;SDS011;17580;50.850;4.504;2023-02-01T10:42:49;9.77;;;3.80;;
10191;SDS011;17580;50.850;4.504;2023-02-01T10:45:20;14.17;;;3.57;;
10191;SDS011;17580;50.850;4.504;2023-02-01T10:47:49;11.63;;;4.20;;
10191;SDS011;17580;50.850;4.504;2023-02-01T10:50:20;10.80;;;3.63;;
10191;SDS011;17580;50.850;4.504;2023-02-01T10:53:01;9.00;;;3.20;;
10191;SDS011;17580;50.850;4.504;2023-02-01T10:55:33;9.67;;;3.07;;
10191;SDS011;17580;50.850;4.504;2023-02-01T10:58:04;8.30;;;3.27;;
10191;SDS011;17580;50.850;4.504;2023-02-01T11:00:38;9.13;;;3.70;;
10191;SDS011;17580;50.850;4.504;2023-02-01T11:03:19;8.17;;;3.43;;
10191;SDS011;17580;50.850;4.504;2023-02-01T11:05:54;11.30;;;4.17;;
10191;SDS011;17580;50.850;4.504;2023-02-01T11:08:23;7.23;;;3.70;;
10191;SDS011;17580;50.850;4.504;2023-02-01T11:10:56;13.93;;;3.80;;
10191;SDS011;17580;50.850;4.504;2023-02-01T11:13:27;10.33;;;3.67;;
10191;SDS011;17580;50.850;4.504;2023-02-01T11:15:57;10.60;;;3.13;;
10191;SDS011;17580;50.850;4.504;2023-02-01T11:18:25;7.97;;;3.10;;
10191;SDS011;17580;50.850;4.504;2023-02-01T11:20:54;10.03;;;3.80;;
10191;SDS011;17580;50.850;4.504;2023-02-01T11:23:22;10.57;;;3.27;;
10191;SDS011;17580;50.850;4.504;2023-02-01T11:25:53;9.97;;;3.17;;
10191;SDS011;17580;50.850;4.504;2023-02-01T11:28:22;9.07;;;3.20;;
10191;SDS011;17580;50.850;4.504;2023-02-01T11:30:51;5.80;;;2.83;;
10191;SDS011;17580;50.850;4.504;2023-02-01T11:33:24;10.43;;;3.00;;
10191;SDS011;17580;50.850;4.504;2023-02-01T11:35:54;10.50;;;3.17;;
10191;SDS011;17580;50.850;4.504;2023-02-01T11:38:27;8.53;;;3.10;;
10191;SDS011;17580;50.850;4.504;2023-02-01T11:40:55;11.17;;;3.60;;
10191;SDS011;17580;50.850;4.504;2023-02-01T11:43:37;7.53;;;2.70;;
10191;SDS011;17580;50.850;4.504;2023-02-01T11:46:19;7.07;;;2.60;;
10191;SDS011;17580;50.850;4.504;2023-02-01T11:48:50;6.10;;;2.30;;
10191;SDS011;17580;50.850;4.504;2023-02-01T11:51:25;9.37;;;2.83;;
10191;SDS011;17580;50.850;4.504;2023-02-01T11:54:11;9.03;;;2.93;;
10191;SDS011;17580;50.850;4.504;2023-02-01T11:56:50;7.27;;;2.57;;
10191;SDS011;17580;50.850;4.504;2023-02-01T11:59:34;5.13;;;2.43;;
10191;SDS011;17580;50.850;4.504;2023-02-01T12:02:30;6.77;;;2.80;;
10191;SDS011;17580;50.850;4.504;2023-02-01T12:08:00;8.23;;;2.23;;
10191;SDS011;17580;50.850;4.504;2023-02-01T12:10:46;7.57;;;2.43;;
10191;SDS011;17580;50.850;4.504;2023-02-01T12:13:25;10.00;;;3.27;;
10191;SDS011;17580;50.850;4.504;2023-02-01T12:16:02;8.83;;;2.30;;
10191;SDS011;17580;50.850;4.504;2023-02-01T12:18:46;9.87;;;2.67;;
10191;SDS011;17580;50.850;4.504;2023-02-01T12:21:32;9.03;;;3.03;;
10191;SDS011;17580;50.850;4.504;2023-02-01T12:24:21;8.37;;;2.60;;
10191;SDS011;17580;50.850;4.504;2023-02-01T12:30:02;7.37;;;3.27;;
10191;SDS011;17580;50.850;4.504;2023-02-01T12:32:46;6.57;;;3.33;;
10191;SDS011;17580;50.850;4.504;2023-02-01T12:35:31;6.07;;;2.83;;
10191;SDS011;17580;50.850;4.504;2023-02-01T12:38:20;6.87;;;2.30;;
10191;SDS011;17580;50.850;4.504;2023-02-01T12:41:29;9.43;;;2.40;;
10191;SDS011;17580;50.850;4.504;2023-02-01T12:44:30;7.30;;;2.90;;
10191;SDS011;17580;50.850;4.504;2023-02-01T12:47:05;9.27;;;2.57;;
10191;SDS011;17580;50.850;4.504;2023-02-01T12:49:44;7.77;;;2.63;;
10191;SDS011;17580;50.850;4.504;2023-02-01T12:52:16;6.03;;;2.07;;
10191;SDS011;17580;50.850;4.504;2023-02-01T12:54:48;4.10;;;1.70;;
10191;SDS011;17580;50.850;4.504;2023-02-01T12:57:23;4.27;;;2.00;;
10191;SDS011;17580;50.850;4.504;2023-02-01T12:59:56;7.33;;;2.87;;
10191;SDS011;17580;50.850;4.504;2023-02-01T13:02:30;4.97;;;2.23;;
10191;SDS011;17580;50.850;4.504;2023-02-01T13:05:05;7.23;;;2.33;;
10191;SDS011;17580;50.850;4.504;2023-02-01T13:07:43;6.57;;;2.50;;
10191;SDS011;17580;50.850;4.504;2023-02-01T13:10:15;5.83;;;2.40;;
10191;SDS011;17580;50.850;4.504;2023-02-01T13:12:44;6.37;;;2.33;;
10191;SDS011;17580;50.850;4.504;2023-02-01T13:15:21;6.63;;;2.30;;
10191;SDS011;17580;50.850;4.504;2023-02-01T13:17:52;10.87;;;2.20;;
10191;SDS011;17580;50.850;4.504;2023-02-01T13:20:25;8.50;;;2.73;;
10191;SDS011;17580;50.850;4.504;2023-02-01T13:22:58;8.60;;;2.77;;
10191;SDS011;17580;50.850;4.504;2023-02-01T13:25:29;8.23;;;2.37;;
10191;SDS011;17580;50.850;4.504;2023-02-01T13:28:03;2.97;;;1.73;;
10191;SDS011;17580;50.850;4.504;2023-02-01T13:30:38;4.57;;;1.50;;
10191;SDS011;17580;50.850;4.504;2023-02-01T13:33:37;8.00;;;2.27;;
10191;SDS011;17580;50.850;4.504;2023-02-01T13:36:32;6.73;;;2.30;;
10191;SDS011;17580;50.850;4.504;2023-02-01T13:42:04;6.23;;;2.13;;
10191;SDS011;17580;50.850;4.504;2023-02-01T13:44:42;6.83;;;2.37;;
10191;SDS011;17580;50.850;4.504;2023-02-01T13:47:15;7.30;;;2.50;;
10191;SDS011;17580;50.850;4.504;2023-02-01T13:49:49;7.00;;;2.37;;
10191;SDS011;17580;50.850;4.504;2023-02-01T13:52:25;5.73;;;2.03;;
10191;SDS011;17580;50.850;4.504;2023-02-01T13:55:02;13.17;;;3.17;;
10191;SDS011;17580;50.850;4.504;2023-02-01T13:57:41;6.67;;;2.30;;
10191;SDS011;17580;50.850;4.504;2023-02-01T14:00:23;7.27;;;1.93;;
10191;SDS011;17580;50.850;4.504;2023-02-01T14:06:03;6.17;;;2.07;;
10191;SDS011;17580;50.850;4.504;2023-02-01T14:08:46;4.93;;;1.80;;
10191;SDS011;17580;50.850;4.504;2023-02-01T14:11:39;9.00;;;2.63;;
10191;SDS011;17580;50.850;4.504;2023-02-01T14:23:16;5.13;;;2.00;;
10191;SDS011;17580;50.850;4.504;2023-02-01T14:25:46;7.07;;;2.23;;
10191;SDS011;17580;50.850;4.504;2023-02-01T14:28:28;17.37;;;2.67;;
10191;SDS011;17580;50.850;4.504;2023-02-01T14:30:56;7.37;;;2.00;;
10191;SDS011;17580;50.850;4.504;2023-02-01T14:33:26;9.40;;;2.67;;
10191;SDS011;17580;50.850;4.504;2023-02-01T14:36:00;7.30;;;2.40;;
10191;SDS011;17580;50.850;4.504;2023-02-01T14:38:35;6.10;;;2.17;;
10191;SDS011;17580;50.850;4.504;2023-02-01T14:41:11;6.47;;;2.40;;
10191;SDS011;17580;50.850;4.504;2023-02-01T14:43:49;6.67;;;2.33;;
10191;SDS011;17580;50.850;4.504;2023-02-01T14:46:17;7.67;;;2.40;;
10191;SDS011;17580;50.850;4.504;2023-02-01T14:48:45;10.33;;;3.00;;
10191;SDS011;17580;50.850;4.504;2023-02-01T14:51:14;9.47;;;1.83;;
10191;SDS011;17580;50.850;4.504;2023-02-01T14:53:45;7.97;;;2.43;;
10191;SDS011;17580;50.850;4.504;2023-02-01T14:56:14;7.33;;;2.50;;
10191;SDS011;17580;50.850;4.504;2023-02-01T14:58:47;7.00;;;3.10;;
10191;SDS011;17580;50.850;4.504;2023-02-01T15:01:21;8.10;;;2.30;;
10191;SDS011;17580;50.850;4.504;2023-02-01T15:03:52;7.30;;;2.80;;
10191;SDS011;17580;50.850;4.504;2023-02-01T15:06:24;8.57;;;2.27;;
10191;SDS011;17580;50.850;4.504;2023-02-01T15:09:02;6.87;;;2.20;;
10191;SDS011;17580;50.850;4.504;2023-02-01T15:11:44;5.77;;;1.87;;
10191;SDS011;17580;50.850;4.504;2023-02-01T15:14:20;7.53;;;2.43;;
10191;SDS011;17580;50.850;4.504;2023-02-01T15:16:48;10.93;;;2.37;;
10191;SDS011;17580;50.850;4.504;2023-02-01T15:19:19;6.57;;;2.00;;
10191;SDS011;17580;50.850;4.504;2023-02-01T15:21:48;6.97;;;2.67;;
10191;SDS011;17580;50.850;4.504;2023-02-01T15:24:22;10.43;;;2.97;;
10191;SDS011;17580;50.850;4.504;2023-02-01T15:26:50;7.63;;;2.23;;
10191;SDS011;17580;50.850;4.504;2023-02-01T15:29:18;11.00;;;2.80;;
10191;SDS011;17580;50.850;4.504;2023-02-01T15:31:47;5.87;;;2.43;;
10191;SDS011;17580;50.850;4.504;2023-02-01T15:34:16;8.13;;;2.70;;
10191;SDS011;17580;50.850;4.504;2023-02-01T15:36:43;11.27;;;2.80;;